Impacts METAR Board
IDs:

KPIT - Pittsburgh Intl, PA, US

Updated at: 0600 UTC 11 Dec 2018
Potential Impact None Slight Moderate High
Time 10/18Z 10/19Z 10/20Z 10/21Z 10/22Z 10/23Z 11/00Z 11/01Z 11/02Z 11/03Z 11/04Z 11/05Z 11/06Z
Temp25 25 25 26 25 26 25 25 24 24 24 23 23
Dewpt20 20 20 20 19 20 20 20 19 19 19 19 19
Altim30.19 30.17 30.17 30.18 30.18 30.19 30.19 30.19 30.19 30.18 30.18 30.17 30.15
VIS9 8 8 7 8 9 8 9 9 9 9 9 9
CIG14 15 16 17 17 17 16 16 15 15 14 14 13
CoverOVCOVCOVCOVCOVCOVCOVCOVCOVCOVCOVCOVCOVC
FltCatMVFRMVFRMVFRMVFRMVFRMVFRMVFRMVFRMVFRMVFRMVFRMVFRMVFR
WX--------------------------
WDir003300000210270200210210210
WSpd3 0 4 0 0 0 0 7 4 5 4 6 6
WGst-- -- -- -- -- -- -- -- -- -- -- -- --
Raw hourly METARs
KPIT 101751Z VRB03KT 9SM OVC014 M04/M07 A3019 RMK AO2 SLP248 T10391067 11039 21056 58008
KPIT 101851Z 00000KT 8SM OVC015 M04/M07 A3017 RMK AO2 SLP244 T10391067
KPIT 101951Z 33004KT 8SM OVC016 M04/M07 A3017 RMK AO2 SLP242 T10391067
KPIT 102051Z 00000KT 7SM OVC017 M03/M07 A3018 RMK AO2 SLP245 T10331067 55003
KPIT 102151Z 00000KT 8SM OVC017 M04/M07 A3018 RMK AO2 SLP247 T10391072
KPIT 102251Z 00000KT 9SM OVC017 M03/M07 A3019 RMK AO2 SLP249 T10331067
KPIT 102351Z 00000KT 8SM OVC016 M04/M07 A3019 RMK AO2 SLP250 T10391067 11033 21039 51006
KPIT 110051Z 21007KT 9SM OVC016 M04/M07 A3019 RMK AO2 SLP249 T10391067
KPIT 110151Z 27004KT 9SM OVC015 M04/M07 A3019 RMK AO2 SLP249 T10441072
KPIT 110251Z 20005KT 9SM OVC015 M04/M07 A3018 RMK AO2 SLP246 T10441072 58004
KPIT 110351Z 21004KT 9SM OVC014 M04/M07 A3018 RMK AO2 SLP245 T10441072
KPIT 110451Z 21006KT 9SM OVC014 M05/M07 A3017 RMK AO2 SLP241 T10501072 410331083
KPIT 110551Z 21006KT 9SM OVC013 M05/M07 A3015 RMK AO2 SLP236 T10501072 11039 21050 58010



Page loaded:  06:22 UTC  |   10:22 PM Pacific  |   11:22 PM Mountain  |   12:22 AM Central  |   01:22 AM Eastern

 

ADVISORIES

FORECASTS

FORECASTS

OBSERVATIONS

USER TOOLS

ABOUT US